createdAt,value
2023-02-28T00:00:56.306Z,-0.18
2023-02-28T00:01:56.397Z,-0.08
2023-02-28T00:02:56.297Z,-0.13
2023-02-28T00:03:56.207Z,-0.11
2023-02-28T00:04:56.215Z,-0.18
2023-02-28T00:05:56.182Z,-0.17
2023-02-28T00:06:56.160Z,-0.11
2023-02-28T00:07:56.193Z,-0.07
2023-02-28T00:08:56.156Z,-0.17
2023-02-28T00:09:56.138Z,-0.26
2023-02-28T00:10:56.130Z,-0.14
2023-02-28T00:11:56.289Z,-0.18
2023-02-28T00:12:56.124Z,-0.17
2023-02-28T00:13:56.098Z,-0.11
2023-02-28T00:14:56.105Z,-0.18
2023-02-28T00:15:56.032Z,-0.10
2023-02-28T00:16:56.234Z,-0.08
2023-02-28T00:17:56.017Z,-0.10
2023-02-28T00:18:56.028Z,-0.06
2023-02-28T00:19:55.970Z,-0.10
2023-02-28T00:20:56.009Z,-0.08
2023-02-28T00:21:55.929Z,-0.14
2023-02-28T00:22:55.930Z,-0.11
2023-02-28T00:23:55.936Z,-0.10
2023-02-28T00:24:55.906Z,-0.11
2023-02-28T00:25:55.908Z,-0.13
2023-02-28T00:26:55.855Z,-0.08
2023-02-28T00:27:55.845Z,-0.10
2023-02-28T00:28:55.860Z,-0.07
2023-02-28T00:29:55.814Z,-0.07
2023-02-28T00:30:55.893Z,-0.11
2023-02-28T00:31:55.857Z,-0.18
2023-02-28T00:32:55.771Z,-0.20
2023-02-28T00:33:55.746Z,-0.20
2023-02-28T00:34:55.761Z,-0.18
2023-02-28T00:35:55.781Z,-0.17
2023-02-28T00:36:55.692Z,-0.25
2023-02-28T00:37:55.682Z,-0.21
2023-02-28T00:38:55.673Z,-0.41
2023-02-28T00:39:55.661Z,-0.28
2023-02-28T00:40:55.635Z,-0.29
2023-02-28T00:41:55.645Z,-0.28
2023-02-28T00:42:55.610Z,-0.26
2023-02-28T00:43:55.598Z,-0.26
2023-02-28T00:44:55.619Z,-0.28
2023-02-28T00:45:55.636Z,-0.26
2023-02-28T00:46:55.540Z,-0.17
2023-02-28T00:47:55.541Z,-0.29
2023-02-28T00:48:55.547Z,-0.17
2023-02-28T00:49:55.570Z,-0.17
2023-02-28T00:50:55.474Z,-0.15
2023-02-28T00:51:55.484Z,-0.18
2023-02-28T00:52:55.535Z,-0.21
2023-02-28T00:53:55.434Z,-0.18
2023-02-28T00:54:55.511Z,-0.15
2023-02-28T00:55:55.418Z,-0.14
2023-02-28T00:56:55.391Z,-0.25
2023-02-28T00:57:55.364Z,-0.15
2023-02-28T00:58:55.413Z,-0.20
2023-02-28T00:59:55.363Z,-0.15
2023-02-28T01:00:55.393Z,-0.18
2023-02-28T01:01:55.346Z,-0.23
2023-02-28T01:02:55.297Z,-0.18
2023-02-28T01:03:55.267Z,-0.17
2023-02-28T01:04:55.253Z,-0.23
2023-02-28T01:05:55.238Z,-0.20
2023-02-28T01:06:55.216Z,-0.21
2023-02-28T01:07:55.208Z,-0.29
2023-02-28T01:08:55.200Z,-0.28
2023-02-28T01:09:55.202Z,-0.14
2023-02-28T01:10:55.180Z,-0.17
2023-02-28T01:11:55.175Z,-0.18
2023-02-28T01:12:55.161Z,-0.21
2023-02-28T01:13:55.370Z,-0.20
2023-02-28T01:14:55.120Z,-0.21
2023-02-28T01:15:55.168Z,-0.23
2023-02-28T01:16:55.114Z,-0.20
2023-02-28T01:17:55.072Z,-0.21
2023-02-28T01:18:55.076Z,-0.20
2023-02-28T01:19:55.020Z,-0.15
2023-02-28T01:20:55.024Z,-0.18
2023-02-28T01:21:54.998Z,-0.21
2023-02-28T01:22:55.018Z,-0.18
2023-02-28T01:23:54.975Z,-0.21
2023-02-28T01:24:55.045Z,-0.20
2023-02-28T01:25:54.970Z,-0.14
2023-02-28T01:26:54.903Z,-0.18
2023-02-28T01:27:54.957Z,-0.20
2023-02-28T01:28:54.901Z,-0.23
2023-02-28T01:29:54.870Z,-0.15
2023-02-28T01:30:54.928Z,-0.21
2023-02-28T01:31:54.866Z,-0.25
2023-02-28T01:32:54.849Z,-0.15
2023-02-28T01:33:54.837Z,-0.11
2023-02-28T01:34:54.816Z,-0.13
2023-02-28T01:35:54.855Z,-0.10
2023-02-28T01:36:54.788Z,-0.03
2023-02-28T01:37:54.774Z,-0.08
2023-02-28T01:38:54.751Z,-0.10
2023-02-28T01:39:54.906Z,-0.02
2023-02-28T01:40:54.700Z,-0.08
2023-02-28T01:41:54.687Z,-0.08
2023-02-28T01:42:54.671Z,-0.13
2023-02-28T01:43:54.637Z,-0.06
2023-02-28T01:44:54.629Z,-0.08
2023-02-28T01:45:54.666Z,-0.17
2023-02-28T01:46:54.597Z,-0.06
2023-02-28T01:47:54.589Z,-0.11
2023-02-28T01:48:54.611Z,-0.20
2023-02-28T01:49:54.563Z,-0.07
2023-02-28T01:50:54.540Z,-0.06
2023-02-28T01:51:54.729Z,-0.07
2023-02-28T01:52:54.540Z,-0.06
2023-02-28T01:53:54.491Z,-0.11
2023-02-28T01:54:54.465Z,-0.18
2023-02-28T01:55:54.530Z,-0.14
2023-02-28T01:56:54.657Z,-0.07
2023-02-28T01:57:54.426Z,-0.14
2023-02-28T01:58:54.420Z,-0.14
2023-02-28T01:59:54.410Z,-0.13
2023-02-28T02:00:54.373Z,-0.17
2023-02-28T02:01:54.891Z,-0.18
2023-02-28T02:02:54.434Z,-0.20
2023-02-28T02:03:54.384Z,-0.14
2023-02-28T02:04:54.336Z,-0.18
2023-02-28T02:05:54.388Z,-0.14
2023-02-28T02:06:54.283Z,-0.14
2023-02-28T02:07:54.294Z,-0.21
2023-02-28T02:08:54.275Z,-0.18
2023-02-28T02:09:54.251Z,-0.21
2023-02-28T02:10:54.231Z,-0.13
2023-02-28T02:11:54.243Z,-0.15
2023-02-28T02:12:54.214Z,-0.17
2023-02-28T02:13:54.188Z,-0.18
2023-02-28T02:14:54.193Z,-0.18
2023-02-28T02:15:54.231Z,-0.20
2023-02-28T02:16:54.357Z,-0.23
2023-02-28T02:17:54.140Z,-0.26
2023-02-28T02:18:54.189Z,-0.20
2023-02-28T02:19:54.074Z,-0.28
2023-02-28T02:20:54.098Z,-0.31
2023-02-28T02:21:54.265Z,-0.23
2023-02-28T02:22:54.023Z,-0.36
2023-02-28T02:23:54.013Z,-0.32
2023-02-28T02:24:54.013Z,-0.31
2023-02-28T02:25:54.003Z,-0.29
2023-02-28T02:26:54.366Z,-0.36
2023-02-28T02:27:54.001Z,-0.36
2023-02-28T02:28:53.969Z,-0.38
2023-02-28T02:29:53.926Z,-0.43
2023-02-28T02:30:53.933Z,-0.39
2023-02-28T02:31:54.324Z,-0.34
2023-02-28T02:32:53.896Z,-0.44
2023-02-28T02:33:53.897Z,-0.38
2023-02-28T02:34:53.839Z,-0.43
2023-02-28T02:35:53.930Z,-0.43
2023-02-28T02:36:53.870Z,-0.44
2023-02-28T02:37:53.810Z,-0.43
2023-02-28T02:38:53.796Z,-0.54
2023-02-28T02:39:53.785Z,-0.54
2023-02-28T02:40:53.746Z,-0.49
2023-02-28T02:41:53.783Z,-0.50
2023-02-28T02:42:53.713Z,-0.56
2023-02-28T02:43:53.709Z,-0.64
2023-02-28T02:44:53.707Z,-0.62
2023-02-28T02:45:53.695Z,-0.62
2023-02-28T02:46:53.729Z,-0.59
2023-02-28T02:47:53.624Z,-0.59
2023-02-28T02:48:53.678Z,-0.54
2023-02-28T02:49:53.635Z,-0.59
2023-02-28T02:50:53.626Z,-0.59
2023-02-28T02:51:53.620Z,-0.62
2023-02-28T02:52:53.587Z,-0.52
2023-02-28T02:53:53.795Z,-0.59
2023-02-28T02:54:55.545Z,-0.62
2023-02-28T02:55:53.525Z,-0.59
2023-02-28T02:56:53.506Z,-0.59
2023-02-28T02:57:53.476Z,-0.62
2023-02-28T02:58:53.483Z,-0.59
2023-02-28T02:59:53.477Z,-0.53
2023-02-28T03:00:53.470Z,-0.56
2023-02-28T03:01:53.441Z,-0.56
2023-02-28T03:02:53.420Z,-0.52
2023-02-28T03:03:53.449Z,-0.59
2023-02-28T03:04:53.399Z,-0.54
2023-02-28T03:05:53.354Z,-0.54
2023-02-28T03:06:53.332Z,-0.47
2023-02-28T03:07:53.315Z,-0.52
2023-02-28T03:08:53.414Z,-0.49
2023-02-28T03:09:53.523Z,-0.50
2023-02-28T03:10:53.307Z,-0.47
2023-02-28T03:11:53.447Z,-0.52
2023-02-28T03:12:53.443Z,-0.49
2023-02-28T03:13:53.300Z,-0.47
2023-02-28T03:14:53.264Z,-0.39
2023-02-28T03:15:53.612Z,-0.50
2023-02-28T03:16:53.195Z,-0.41
2023-02-28T03:17:53.174Z,-0.43
2023-02-28T03:18:53.156Z,-0.49
2023-02-28T03:19:53.181Z,-0.44
2023-02-28T03:20:53.168Z,-0.41
2023-02-28T03:21:53.098Z,-0.50
2023-02-28T03:22:53.098Z,-0.44
2023-02-28T03:23:53.108Z,-0.39
2023-02-28T03:24:53.091Z,-0.39
2023-02-28T03:25:53.089Z,-0.39
2023-02-28T03:26:53.059Z,-0.34
2023-02-28T03:27:53.088Z,-0.41
2023-02-28T03:28:53.043Z,-0.52
2023-02-28T03:29:53.013Z,-0.44
2023-02-28T03:30:52.987Z,-0.43
2023-02-28T03:31:53.261Z,-0.43
2023-02-28T03:32:52.960Z,-0.47
2023-02-28T03:33:52.941Z,-0.44
2023-02-28T03:34:52.922Z,-0.49
2023-02-28T03:35:52.989Z,-0.46
2023-02-28T03:36:52.954Z,-0.50
2023-02-28T03:37:52.858Z,-0.50
2023-02-28T03:38:52.869Z,-0.44
2023-02-28T03:39:52.839Z,-0.49
2023-02-28T03:40:52.832Z,-0.36
2023-02-28T03:41:52.818Z,-0.36
2023-02-28T03:42:52.796Z,-0.41
2023-02-28T03:43:52.760Z,-0.38
2023-02-28T03:44:52.757Z,-0.36
2023-02-28T03:45:52.819Z,-0.41
2023-02-28T03:46:52.747Z,-0.39
2023-02-28T03:47:52.702Z,-0.44
2023-02-28T03:48:52.669Z,-0.50
2023-02-28T03:49:52.668Z,-0.39
2023-02-28T03:50:52.679Z,-0.39
2023-02-28T03:51:52.649Z,-0.38
2023-02-28T03:52:52.609Z,-0.43
2023-02-28T03:53:52.600Z,-0.49
2023-02-28T03:54:52.622Z,-0.43
2023-02-28T03:55:52.566Z,-0.41
2023-02-28T03:56:52.585Z,-0.44
2023-02-28T03:57:52.531Z,-0.44
2023-02-28T03:58:52.533Z,-0.50
2023-02-28T03:59:52.526Z,-0.46
2023-02-28T04:00:52.512Z,-0.46
2023-02-28T04:01:52.535Z,-0.44
2023-02-28T04:02:52.489Z,-0.41
2023-02-28T04:03:52.437Z,-0.52
2023-02-28T04:04:52.555Z,-0.46
2023-02-28T04:05:52.427Z,-0.47
2023-02-28T04:06:52.404Z,-0.47
2023-02-28T04:07:52.365Z,-0.43
2023-02-28T04:08:52.373Z,-0.52
2023-02-28T04:09:52.364Z,-0.49
2023-02-28T04:10:52.355Z,-0.43
2023-02-28T04:11:52.333Z,-0.50
2023-02-28T04:12:52.315Z,-0.46
2023-02-28T04:13:52.315Z,-0.59
2023-02-28T04:14:52.293Z,-0.53
2023-02-28T04:15:52.321Z,-0.62
2023-02-28T04:16:52.252Z,-0.65
2023-02-28T04:17:52.227Z,-0.59
2023-02-28T04:18:52.197Z,-0.54
2023-02-28T04:19:52.303Z,-0.62
2023-02-28T04:20:52.186Z,-0.54
2023-02-28T04:21:52.144Z,-0.56
2023-02-28T04:22:52.151Z,-0.57
2023-02-28T04:23:52.117Z,-0.57
2023-02-28T04:24:52.116Z,-0.54
2023-02-28T04:25:52.125Z,-0.59
2023-02-28T04:26:52.104Z,-0.61
2023-02-28T04:27:52.077Z,-0.64
2023-02-28T04:28:52.082Z,-0.61
2023-02-28T04:29:52.034Z,-0.57
2023-02-28T04:30:52.222Z,-0.54
2023-02-28T04:31:52.097Z,-0.56
2023-02-28T04:32:51.965Z,-0.61
2023-02-28T04:33:51.948Z,-0.59
2023-02-28T04:34:51.939Z,-0.56
2023-02-28T04:35:51.945Z,-0.57
2023-02-28T04:37:06.126Z,-0.65
2023-02-28T04:37:51.898Z,-0.59
2023-02-28T04:38:51.884Z,-0.64
2023-02-28T04:39:51.882Z,-0.59
2023-02-28T04:40:51.847Z,-0.54
2023-02-28T04:41:51.837Z,-0.59
2023-02-28T04:42:51.842Z,-0.57
2023-02-28T04:43:51.815Z,-0.57
2023-02-28T04:44:51.802Z,-0.57
2023-02-28T04:45:51.793Z,-0.54
2023-02-28T04:46:51.750Z,-0.57
2023-02-28T04:47:51.720Z,-0.65
2023-02-28T04:48:51.712Z,-0.57
2023-02-28T04:49:51.715Z,-0.61
2023-02-28T04:50:51.687Z,-0.61
2023-02-28T04:51:51.661Z,-0.56
2023-02-28T04:52:51.656Z,-0.61
2023-02-28T04:53:51.634Z,-0.64
2023-02-28T04:54:51.628Z,-0.68
2023-02-28T04:55:51.604Z,-0.64
2023-02-28T04:56:51.593Z,-0.70
2023-02-28T04:57:51.566Z,-0.62
2023-02-28T04:58:51.551Z,-0.67
2023-02-28T04:59:51.526Z,-0.67
2023-02-28T05:00:51.545Z,-0.72
2023-02-28T05:01:51.655Z,-0.72
2023-02-28T05:02:51.497Z,-0.70
2023-02-28T05:03:51.473Z,-0.72
2023-02-28T05:04:51.531Z,-0.77
2023-02-28T05:05:51.437Z,-0.68
2023-02-28T05:06:51.431Z,-0.78
2023-02-28T05:07:51.402Z,-0.83
2023-02-28T05:08:51.393Z,-0.78
2023-02-28T05:09:51.360Z,-0.77
2023-02-28T05:10:51.347Z,-0.78
2023-02-28T05:11:51.342Z,-0.94
2023-02-28T05:12:51.358Z,-0.82
2023-02-28T05:13:51.323Z,-0.86
2023-02-28T05:14:51.312Z,-0.83
2023-02-28T05:15:51.384Z,-0.86
2023-02-28T05:16:51.301Z,-0.85
2023-02-28T05:17:51.266Z,-1.01
2023-02-28T05:18:51.312Z,-0.97
2023-02-28T05:19:51.252Z,-1.01
2023-02-28T05:20:51.215Z,-1.04
2023-02-28T05:21:51.193Z,-1.05
2023-02-28T05:22:51.212Z,-1.15
2023-02-28T05:23:51.185Z,-1.08
2023-02-28T05:24:51.135Z,-1.09
2023-02-28T05:25:51.142Z,-1.07
2023-02-28T05:26:51.125Z,-1.08
2023-02-28T05:27:51.103Z,-1.22
2023-02-28T05:28:51.084Z,-1.19
2023-02-28T05:29:51.065Z,-1.23
2023-02-28T05:30:51.045Z,-1.30
2023-02-28T05:31:51.149Z,-1.26
2023-02-28T05:32:51.016Z,-1.23
2023-02-28T05:33:51.001Z,-1.27
2023-02-28T05:34:51.004Z,-1.30
2023-02-28T05:35:51.050Z,-1.30
2023-02-28T05:36:50.958Z,-1.25
2023-02-28T05:37:50.932Z,-1.32
2023-02-28T05:38:50.935Z,-1.38
2023-02-28T05:39:50.894Z,-1.37
2023-02-28T05:40:50.897Z,-1.30
2023-02-28T05:41:50.874Z,-1.35
2023-02-28T05:42:50.864Z,-1.35
2023-02-28T05:43:50.865Z,-1.33
2023-02-28T05:44:50.871Z,-1.40
2023-02-28T05:45:50.848Z,-1.38
2023-02-28T05:46:50.809Z,-1.44
2023-02-28T05:47:50.768Z,-1.43
2023-02-28T05:48:50.806Z,-1.43
2023-02-28T05:49:50.747Z,-1.43
2023-02-28T05:50:50.759Z,-1.38
2023-02-28T05:51:50.731Z,-1.46
2023-02-28T05:52:50.716Z,-1.53
2023-02-28T05:53:50.720Z,-1.51
2023-02-28T05:54:50.668Z,-1.59
2023-02-28T05:55:50.628Z,-1.62
2023-02-28T05:56:50.621Z,-1.62
2023-02-28T05:57:50.622Z,-1.56
2023-02-28T05:58:50.592Z,-1.61
2023-02-28T05:59:50.615Z,-1.62
2023-02-28T06:00:50.579Z,-1.61
2023-02-28T06:01:50.543Z,-1.50
2023-02-28T06:02:50.538Z,-1.51
2023-02-28T06:03:50.499Z,-1.48
2023-02-28T06:04:50.519Z,-1.66
2023-02-28T06:05:50.478Z,-1.61
2023-02-28T06:06:50.513Z,-1.62
2023-02-28T06:07:50.503Z,-1.61
2023-02-28T06:08:50.486Z,-1.46
2023-02-28T06:09:50.410Z,-1.56
2023-02-28T06:10:50.394Z,-1.58
2023-02-28T06:11:50.384Z,-1.58
2023-02-28T06:12:50.362Z,-1.64
2023-02-28T06:13:50.360Z,-1.66
2023-02-28T06:14:50.325Z,-1.58
2023-02-28T06:15:50.338Z,-1.65
2023-02-28T06:16:50.475Z,-1.65
2023-02-28T06:17:50.262Z,-1.58
2023-02-28T06:18:50.262Z,-1.54
2023-02-28T06:19:50.244Z,-1.65
2023-02-28T06:20:50.244Z,-1.56
2023-02-28T06:21:50.218Z,-1.66
2023-02-28T06:22:50.195Z,-1.61
2023-02-28T06:23:50.197Z,-1.61
2023-02-28T06:24:50.162Z,-1.66
2023-02-28T06:25:50.148Z,-1.53
2023-02-28T06:26:50.141Z,-1.54
2023-02-28T06:27:50.133Z,-1.35
2023-02-28T06:28:50.096Z,-1.25
2023-02-28T06:29:50.109Z,-0.93
2023-02-28T06:30:50.134Z,-0.50
2023-02-28T06:31:50.098Z,-0.15
2023-02-28T06:32:50.044Z,0.25
2023-02-28T06:33:50.033Z,0.63
2023-02-28T06:34:50.040Z,1.05
2023-02-28T06:35:50.098Z,1.52
2023-02-28T06:36:50.010Z,2.07
2023-02-28T06:37:49.991Z,2.47
2023-02-28T06:38:49.943Z,2.80
2023-02-28T06:39:49.934Z,3.11
2023-02-28T06:40:49.932Z,3.55
2023-02-28T06:41:55.436Z,3.78
2023-02-28T06:42:49.891Z,4.12
2023-02-28T06:43:49.864Z,4.40
2023-02-28T06:44:49.875Z,4.68
2023-02-28T06:45:50.039Z,4.87
2023-02-28T06:46:49.845Z,5.00
2023-02-28T06:47:49.824Z,5.35
2023-02-28T06:48:49.830Z,5.44
2023-02-28T06:49:49.818Z,5.65
2023-02-28T06:50:49.798Z,5.86
2023-02-28T06:51:49.780Z,6.09
2023-02-28T06:52:49.826Z,6.38
2023-02-28T06:53:49.781Z,6.57
2023-02-28T06:54:49.769Z,6.52
2023-02-28T06:55:49.735Z,6.75
2023-02-28T06:56:49.744Z,6.77
2023-02-28T06:57:49.780Z,6.74
2023-02-28T06:58:49.708Z,6.78
2023-02-28T06:59:49.697Z,6.84
2023-02-28T07:00:49.682Z,7.18
2023-02-28T07:01:49.721Z,6.97
2023-02-28T07:02:49.675Z,6.70
2023-02-28T07:03:49.664Z,6.79
2023-02-28T07:04:49.713Z,6.96
2023-02-28T07:05:49.667Z,6.59
2023-02-28T07:06:49.660Z,5.91
2023-02-28T07:07:49.654Z,5.66
2023-02-28T07:08:49.638Z,5.97
2023-02-28T07:09:49.633Z,5.44
2023-02-28T07:10:49.603Z,3.98
2023-02-28T07:11:49.591Z,3.25
2023-02-28T07:12:49.596Z,2.46
2023-02-28T07:13:49.575Z,2.18
2023-02-28T07:14:49.562Z,1.77
2023-02-28T07:15:49.547Z,1.73
2023-02-28T07:16:49.531Z,1.59
2023-02-28T07:17:49.581Z,1.44
2023-02-28T07:18:49.604Z,1.32
2023-02-28T07:19:49.532Z,1.19
2023-02-28T07:20:49.525Z,1.13
2023-02-28T07:21:49.721Z,1.08
2023-02-28T07:22:49.488Z,0.94
2023-02-28T07:23:49.477Z,0.84
2023-02-28T07:24:49.503Z,0.65
2023-02-28T07:25:49.463Z,0.66
2023-02-28T07:26:49.440Z,0.60
2023-02-28T07:27:49.481Z,0.55
2023-02-28T07:28:49.466Z,0.58
2023-02-28T07:29:49.456Z,0.65
2023-02-28T07:30:49.480Z,0.59
2023-02-28T07:31:49.406Z,0.83
2023-02-28T07:32:49.355Z,0.95
2023-02-28T07:33:49.359Z,0.95
2023-02-28T07:34:49.331Z,1.01
2023-02-28T07:35:49.368Z,1.12
2023-02-28T07:36:49.340Z,1.22
2023-02-28T07:37:49.299Z,1.24
2023-02-28T07:38:49.284Z,1.17
2023-02-28T07:39:49.279Z,1.10
2023-02-28T07:40:49.293Z,1.10
2023-02-28T07:41:49.315Z,1.17
2023-02-28T07:42:49.233Z,1.22
2023-02-28T07:43:49.276Z,1.20
2023-02-28T07:44:49.194Z,1.23
2023-02-28T07:45:49.218Z,1.24
2023-02-28T07:46:49.314Z,1.24
2023-02-28T07:47:49.219Z,1.31
2023-02-28T07:48:49.173Z,1.44
2023-02-28T07:49:49.133Z,1.12
2023-02-28T07:50:49.129Z,0.91
2023-02-28T07:51:49.177Z,0.96
2023-02-28T07:52:49.111Z,1.05
2023-02-28T07:53:49.117Z,1.23
2023-02-28T07:54:49.099Z,1.23
2023-02-28T07:55:49.056Z,1.30
2023-02-28T07:56:49.096Z,1.42
2023-02-28T07:57:49.060Z,1.42
2023-02-28T07:58:49.035Z,1.74
2023-02-28T07:59:49.087Z,2.13
2023-02-28T08:00:49.045Z,2.04
2023-02-28T08:01:49.045Z,1.87
2023-02-28T08:02:49.008Z,1.77
2023-02-28T08:03:48.976Z,2.04
2023-02-28T08:04:49.086Z,2.08
2023-02-28T08:05:48.923Z,2.29
2023-02-28T08:06:48.933Z,2.68
2023-02-28T08:07:48.916Z,2.97
2023-02-28T08:08:48.900Z,3.28
2023-02-28T08:09:48.914Z,3.92
2023-02-28T08:10:48.867Z,4.93
2023-02-28T08:11:48.889Z,5.05
2023-02-28T08:12:48.892Z,4.92
2023-02-28T08:13:49.052Z,4.58
2023-02-28T08:14:48.814Z,4.60
2023-02-28T08:15:48.923Z,4.82
2023-02-28T08:16:48.800Z,4.63
2023-02-28T08:17:48.793Z,5.44
2023-02-28T08:18:48.787Z,6.35
2023-02-28T08:19:48.801Z,6.17
2023-02-28T08:20:48.734Z,5.94
2023-02-28T08:21:48.750Z,5.98
2023-02-28T08:22:48.754Z,6.63
2023-02-28T08:23:48.716Z,6.44
2023-02-28T08:24:48.811Z,6.30
2023-02-28T08:25:48.753Z,6.36
2023-02-28T08:26:48.724Z,6.54
2023-02-28T08:27:48.705Z,6.84
2023-02-28T08:28:48.731Z,7.29
2023-02-28T08:29:48.666Z,7.48
2023-02-28T08:30:48.652Z,7.69
2023-02-28T08:31:48.839Z,7.91
2023-02-28T08:32:48.714Z,7.97
2023-02-28T08:33:48.634Z,8.06
2023-02-28T08:34:48.605Z,6.82
2023-02-28T08:35:48.712Z,6.12
2023-02-28T08:36:48.643Z,5.69
2023-02-28T08:37:48.610Z,5.91
2023-02-28T08:38:48.636Z,6.19
2023-02-28T08:39:48.597Z,6.35
2023-02-28T08:40:48.591Z,6.95
2023-02-28T08:41:53.430Z,7.79
2023-02-28T08:42:48.559Z,7.47
2023-02-28T08:43:48.578Z,7.87
2023-02-28T08:44:48.616Z,7.79
2023-02-28T08:45:48.632Z,8.20
2023-02-28T08:46:48.604Z,7.91
2023-02-28T08:47:48.557Z,7.61
2023-02-28T08:48:48.545Z,7.73
2023-02-28T08:49:48.548Z,7.47
2023-02-28T08:51:04.891Z,7.24
2023-02-28T08:51:48.520Z,6.28
2023-02-28T08:52:48.504Z,6.79
2023-02-28T08:53:48.499Z,6.46
2023-02-28T08:54:48.495Z,6.63
2023-02-28T08:55:48.480Z,7.32
2023-02-28T08:56:48.468Z,7.72
2023-02-28T08:57:48.467Z,7.45
2023-02-28T08:58:48.414Z,7.77
2023-02-28T08:59:48.406Z,6.87
2023-02-28T09:00:48.549Z,6.54
2023-02-28T09:01:48.443Z,6.14
2023-02-28T09:02:48.413Z,6.49
2023-02-28T09:03:48.538Z,6.33
2023-02-28T09:04:48.401Z,6.77
2023-02-28T09:05:48.411Z,7.14
2023-02-28T09:06:48.405Z,7.39
2023-02-28T09:07:48.387Z,7.13
2023-02-28T09:08:48.359Z,7.61
2023-02-28T09:09:48.381Z,7.33
2023-02-28T09:10:48.328Z,7.06
2023-02-28T09:11:48.347Z,6.62
2023-02-28T09:12:48.337Z,6.27
2023-02-28T09:13:48.426Z,6.59
2023-02-28T09:14:48.318Z,6.05
2023-02-28T09:15:48.325Z,5.98
2023-02-28T09:16:48.399Z,5.69
2023-02-28T09:17:48.732Z,6.59
2023-02-28T09:18:48.297Z,6.66
2023-02-28T09:19:48.293Z,6.28
2023-02-28T09:20:48.288Z,6.22
2023-02-28T09:21:48.246Z,5.43
2023-02-28T09:22:48.233Z,4.48
2023-02-28T09:23:48.234Z,4.68
2023-02-28T09:24:48.232Z,4.93
2023-02-28T09:25:48.217Z,5.10
2023-02-28T09:27:01.755Z,4.31
2023-02-28T09:27:48.206Z,4.34
2023-02-28T09:28:48.246Z,4.60
2023-02-28T09:29:48.224Z,3.83
2023-02-28T09:30:48.245Z,4.45
2023-02-28T09:31:48.260Z,3.88
2023-02-28T09:32:50.347Z,3.68
2023-02-28T09:33:48.165Z,4.40
2023-02-28T09:34:48.164Z,4.82
2023-02-28T09:35:48.245Z,5.36
2023-02-28T09:36:48.681Z,5.51
2023-02-28T09:37:48.116Z,5.66
2023-02-28T09:38:48.924Z,5.14
2023-02-28T09:39:48.094Z,4.70
2023-02-28T09:40:48.143Z,4.71
2023-02-28T09:41:48.070Z,4.89
2023-02-28T09:42:48.048Z,5.08
2023-02-28T09:43:48.076Z,4.90
2023-02-28T09:44:48.047Z,4.87
2023-02-28T09:45:48.074Z,4.93
2023-02-28T09:46:48.031Z,4.66
2023-02-28T09:47:48.029Z,5.12
2023-02-28T09:48:48.078Z,5.23
2023-02-28T09:49:48.053Z,4.89
2023-02-28T09:50:48.040Z,4.14
2023-02-28T09:51:47.995Z,3.65
2023-02-28T09:52:47.966Z,3.77
2023-02-28T09:53:53.293Z,4.40
2023-02-28T09:54:47.938Z,4.35
2023-02-28T09:55:47.939Z,4.48
2023-02-28T09:56:47.912Z,4.70
2023-02-28T09:57:47.943Z,4.94
2023-02-28T09:58:47.953Z,5.10
2023-02-28T09:59:47.906Z,5.23
2023-02-28T10:00:47.887Z,5.05
2023-02-28T10:01:47.922Z,5.29
2023-02-28T10:02:47.872Z,5.36
2023-02-28T10:03:47.878Z,5.46
2023-02-28T10:04:47.952Z,5.61
2023-02-28T10:05:47.830Z,5.48
2023-02-28T10:06:47.854Z,5.43
2023-02-28T10:07:47.823Z,5.04
2023-02-28T10:08:47.816Z,4.52
2023-02-28T10:09:47.833Z,4.82
2023-02-28T10:10:47.811Z,4.89
2023-02-28T10:12:47.784Z,4.55
2023-02-28T10:13:47.778Z,4.22
2023-02-28T10:14:47.753Z,4.60
2023-02-28T10:15:47.831Z,4.42
2023-02-28T10:16:47.914Z,4.62
2023-02-28T10:17:55.789Z,4.40
2023-02-28T10:18:47.695Z,4.63
2023-02-28T10:19:47.704Z,4.48
2023-02-28T10:20:47.729Z,4.53
2023-02-28T10:21:47.672Z,4.59
2023-02-28T10:22:47.678Z,4.62
2023-02-28T10:23:47.642Z,4.59
2023-02-28T10:24:47.676Z,4.35
2023-02-28T10:25:47.662Z,3.86
2023-02-28T10:26:47.618Z,3.81
2023-02-28T10:27:47.608Z,3.65
2023-02-28T10:28:47.598Z,3.66
2023-02-28T10:29:47.631Z,3.81
2023-02-28T10:30:47.608Z,3.91
2023-02-28T10:31:47.579Z,4.12
2023-02-28T10:32:47.550Z,3.94
2023-02-28T10:33:47.528Z,3.94
2023-02-28T10:34:47.544Z,3.76
2023-02-28T10:35:47.652Z,3.81
2023-02-28T10:36:47.500Z,3.96
2023-02-28T10:37:47.482Z,4.04
2023-02-28T10:38:47.470Z,4.28
2023-02-28T10:39:47.493Z,4.58
2023-02-28T10:40:47.438Z,4.86
2023-02-28T10:41:47.442Z,5.12
2023-02-28T10:42:47.457Z,4.94
2023-02-28T10:43:47.395Z,4.92
2023-02-28T10:44:47.401Z,4.80
2023-02-28T10:45:47.396Z,4.84
2023-02-28T10:46:47.426Z,4.68
2023-02-28T10:47:47.375Z,4.70
2023-02-28T10:48:47.328Z,4.56
2023-02-28T10:49:47.344Z,4.63
2023-02-28T10:50:47.304Z,4.73
2023-02-28T10:51:47.292Z,4.77
2023-02-28T10:52:47.312Z,4.92
2023-02-28T10:54:00.155Z,5.02
2023-02-28T10:54:47.237Z,4.70
2023-02-28T10:55:47.223Z,4.63
2023-02-28T10:56:47.249Z,4.48
2023-02-28T10:57:47.195Z,4.59
2023-02-28T10:58:47.200Z,4.67
2023-02-28T10:59:47.175Z,4.70
2023-02-28T11:00:47.166Z,4.50
2023-02-28T11:01:47.214Z,4.62
2023-02-28T11:02:47.173Z,4.28
2023-02-28T11:03:47.126Z,4.48
2023-02-28T11:04:48.309Z,4.59
2023-02-28T11:05:47.112Z,4.53
2023-02-28T11:06:47.092Z,4.38
2023-02-28T11:07:53.383Z,4.16
2023-02-28T11:08:47.094Z,4.13
2023-02-28T11:09:47.056Z,4.30
2023-02-28T11:10:47.047Z,4.55
2023-02-28T11:11:47.025Z,4.58
2023-02-28T11:12:52.584Z,4.82
2023-02-28T11:13:47.001Z,4.84
2023-02-28T11:14:47.195Z,5.20
2023-02-28T11:15:46.968Z,5.12
2023-02-28T11:16:47.012Z,4.80
2023-02-28T11:17:46.974Z,4.67
2023-02-28T11:18:46.947Z,4.58
2023-02-28T11:19:46.956Z,4.41
2023-02-28T11:20:46.923Z,4.20
2023-02-28T11:21:46.930Z,4.12
2023-02-28T11:22:46.929Z,4.53
2023-02-28T11:23:46.895Z,4.41
2023-02-28T11:24:46.905Z,4.24
2023-02-28T11:25:46.851Z,4.05
2023-02-28T11:26:46.863Z,3.95
2023-02-28T11:27:46.795Z,3.92
2023-02-28T11:28:46.820Z,3.94
2023-02-28T11:29:46.791Z,4.20
2023-02-28T11:30:46.800Z,4.45
2023-02-28T11:31:46.833Z,4.93
2023-02-28T11:32:46.782Z,4.90
2023-02-28T11:33:46.736Z,4.89
2023-02-28T11:34:46.715Z,4.55
2023-02-28T11:35:46.748Z,4.55
2023-02-28T11:36:46.693Z,4.23
2023-02-28T11:37:46.661Z,3.94
2023-02-28T11:38:46.663Z,4.01
2023-02-28T11:39:46.658Z,4.10
2023-02-28T11:40:46.698Z,3.83
2023-02-28T11:41:46.665Z,3.99
2023-02-28T11:42:46.625Z,4.17
2023-02-28T11:43:46.603Z,4.30
2023-02-28T11:44:46.596Z,4.59
2023-02-28T11:45:46.583Z,4.86
2023-02-28T11:46:46.639Z,4.60
2023-02-28T11:47:46.532Z,4.71
2023-02-28T11:48:46.540Z,4.96
2023-02-28T11:49:46.525Z,4.82
2023-02-28T11:50:46.525Z,4.75
2023-02-28T11:51:46.501Z,4.89
2023-02-28T11:52:46.484Z,4.90
2023-02-28T11:53:46.477Z,5.21
2023-02-28T11:54:46.448Z,5.15
2023-02-28T11:55:46.427Z,5.11
2023-02-28T11:56:46.462Z,4.97
2023-02-28T11:57:46.428Z,4.63
2023-02-28T11:58:48.093Z,4.89
2023-02-28T11:59:46.391Z,4.70
2023-02-28T12:00:46.362Z,4.89
2023-02-28T12:01:46.366Z,4.55
2023-02-28T12:02:46.465Z,4.31
2023-02-28T12:03:46.533Z,4.20
2023-02-28T12:04:46.344Z,4.10
2023-02-28T12:05:46.305Z,4.20
2023-02-28T12:06:46.292Z,3.88
2023-02-28T12:07:46.295Z,3.83
2023-02-28T12:08:46.260Z,3.92
2023-02-28T12:09:46.260Z,3.94
2023-02-28T12:10:46.241Z,4.04
2023-02-28T12:11:46.236Z,4.32
2023-02-28T12:12:46.236Z,4.52
2023-02-28T12:13:46.193Z,4.62
2023-02-28T12:14:46.187Z,4.59
2023-02-28T12:15:46.180Z,4.77
2023-02-28T12:16:46.196Z,4.75
2023-02-28T12:17:46.155Z,4.55
2023-02-28T12:18:46.134Z,4.45
2023-02-28T12:19:46.126Z,4.40
2023-02-28T12:20:46.120Z,4.55
2023-02-28T12:21:46.105Z,4.74
2023-02-28T12:22:46.069Z,4.84
2023-02-28T12:23:46.070Z,4.44
2023-02-28T12:24:46.061Z,4.41
2023-02-28T12:25:46.028Z,4.32
2023-02-28T12:26:46.040Z,4.42
2023-02-28T12:27:46.023Z,4.52
2023-02-28T12:28:46.027Z,4.44
2023-02-28T12:29:45.990Z,4.59
2023-02-28T12:30:45.980Z,4.75
2023-02-28T12:31:46.195Z,4.40
2023-02-28T12:32:45.997Z,4.14
2023-02-28T12:33:45.933Z,4.22
2023-02-28T12:34:45.913Z,4.31
2023-02-28T12:35:45.905Z,4.58
2023-02-28T12:36:45.886Z,4.53
2023-02-28T12:37:45.877Z,4.66
2023-02-28T12:38:45.872Z,4.44
2023-02-28T12:39:50.560Z,4.45
2023-02-28T12:40:45.838Z,4.34
2023-02-28T12:41:45.806Z,4.34
2023-02-28T12:42:45.837Z,4.37
2023-02-28T12:43:45.789Z,4.34
2023-02-28T12:44:45.857Z,4.42
2023-02-28T12:45:45.846Z,4.59
2023-02-28T12:46:45.818Z,4.62
2023-02-28T12:47:45.744Z,4.58
2023-02-28T12:48:45.730Z,4.38
2023-02-28T12:49:45.699Z,4.23
2023-02-28T12:50:45.711Z,4.34
2023-02-28T12:51:45.718Z,4.37
2023-02-28T12:52:45.665Z,4.40
2023-02-28T12:53:45.677Z,4.34
2023-02-28T12:54:45.647Z,4.32
2023-02-28T12:55:45.627Z,4.22
2023-02-28T12:56:45.655Z,4.35
2023-02-28T12:57:45.615Z,4.45
2023-02-28T12:58:45.606Z,4.58
2023-02-28T12:59:45.578Z,4.58
2023-02-28T13:00:45.592Z,4.60
2023-02-28T13:01:45.537Z,4.38
2023-02-28T13:02:45.545Z,4.30
2023-02-28T13:03:45.507Z,4.55
2023-02-28T13:04:45.499Z,4.48
2023-02-28T13:05:45.487Z,4.52
2023-02-28T13:06:45.469Z,4.35